createdAt,value
2022-12-25T21:34:22.411Z,98866.88
2022-12-25T21:36:50.618Z,98869.47
2022-12-25T21:39:18.584Z,98871.38
2022-12-25T21:41:46.502Z,98878.66
2022-12-25T21:44:14.415Z,98889.88
2022-12-25T21:46:42.561Z,98887.00
2022-12-25T21:49:10.550Z,98882.13
2022-12-25T21:51:57.178Z,98887.63
2022-12-25T21:54:25.084Z,98888.50
2022-12-25T21:56:52.968Z,98893.75
2022-12-25T21:59:22.441Z,98908.34
2022-12-25T22:01:52.054Z,98908.19
2022-12-25T22:04:22.306Z,98909.91
2022-12-25T22:07:09.055Z,98907.56
2022-12-25T22:09:38.212Z,98899.13
2022-12-25T22:12:30.152Z,98898.78
2022-12-25T22:15:03.157Z,98891.41
2022-12-25T22:18:01.510Z,98881.03
2022-12-25T22:20:34.801Z,98875.38
2022-12-25T22:23:03.073Z,98884.91
2022-12-25T22:25:30.993Z,98898.78
2022-12-25T22:27:59.402Z,98896.03
2022-12-25T22:30:29.271Z,98896.75
2022-12-25T22:32:57.532Z,98900.75
2022-12-25T22:35:25.546Z,98903.78
2022-12-25T22:37:54.256Z,98906.50
2022-12-25T22:40:22.372Z,98905.84
2022-12-25T22:42:53.791Z,98923.97
2022-12-25T22:45:21.688Z,98922.91
2022-12-25T22:47:49.767Z,98920.28
2022-12-25T22:50:17.865Z,98914.53
2022-12-25T22:52:47.107Z,98928.34
2022-12-25T22:55:20.167Z,98918.69
2022-12-25T22:57:49.034Z,98914.06
2022-12-25T23:00:17.168Z,98925.78
2022-12-25T23:02:45.444Z,98929.84
2022-12-25T23:05:13.673Z,98930.88
2022-12-25T23:07:41.941Z,98928.63
2022-12-25T23:10:10.726Z,98935.00
2022-12-25T23:12:57.267Z,98938.47
2022-12-25T23:15:25.919Z,98937.44
2022-12-25T23:18:12.352Z,98940.56
2022-12-25T23:20:59.164Z,98950.44
2022-12-25T23:23:59.931Z,98935.34
2022-12-25T23:26:27.840Z,98934.63
2022-12-25T23:29:15.571Z,98937.38
2022-12-25T23:31:43.807Z,98934.13
2022-12-25T23:34:11.850Z,98939.97
2022-12-25T23:36:39.844Z,98928.84
2022-12-25T23:39:10.624Z,98930.81
2022-12-25T23:41:42.945Z,98942.44
2022-12-25T23:44:12.550Z,98932.50
2022-12-25T23:46:41.276Z,98934.38
2022-12-25T23:49:22.221Z,98922.06
2022-12-25T23:51:50.277Z,98942.63
2022-12-25T23:54:22.251Z,98936.97
2022-12-25T23:56:51.038Z,98950.00
2022-12-25T23:59:19.783Z,98943.84
